sensor_id;sensor_type;location;lat;lon;timestamp;pressure;altitude;pressure_sealevel;temperature;humidity
50093;BME280;35974;47.752;10.290;2024-03-08T00:01:57;93507.03;;;1.13;100.00
50093;BME280;35974;47.752;10.290;2024-03-08T00:04:24;93511.88;;;1.16;100.00
50093;BME280;35974;47.752;10.290;2024-03-08T00:06:51;93510.78;;;0.92;100.00
50093;BME280;35974;47.752;10.290;2024-03-08T00:09:18;93495.03;;;0.95;100.00
50093;BME280;35974;47.752;10.290;2024-03-08T00:11:44;93511.47;;;1.02;100.00
50093;BME280;35974;47.752;10.290;2024-03-08T00:14:11;93485.03;;;0.92;100.00
50093;BME280;35974;47.752;10.290;2024-03-08T00:16:37;93498.25;;;0.97;100.00
50093;BME280;35974;47.752;10.290;2024-03-08T00:19:09;93496.53;;;1.06;100.00
50093;BME280;35974;47.752;10.290;2024-03-08T00:21:44;93517.38;;;1.21;100.00
50093;BME280;35974;47.752;10.290;2024-03-08T00:24:11;93493.16;;;1.14;100.00
50093;BME280;35974;47.752;10.290;2024-03-08T00:26:38;93491.56;;;1.13;100.00
50093;BME280;35974;47.752;10.290;2024-03-08T00:29:05;93492.84;;;1.17;100.00
50093;BME280;35974;47.752;10.290;2024-03-08T00:31:32;93489.44;;;1.08;100.00
50093;BME280;35974;47.752;10.290;2024-03-08T00:33:58;93481.19;;;0.96;100.00
50093;BME280;35974;47.752;10.290;2024-03-08T00:36:26;93485.72;;;1.02;100.00
50093;BME280;35974;47.752;10.290;2024-03-08T00:38:52;93497.38;;;1.15;100.00
50093;BME280;35974;47.752;10.290;2024-03-08T00:41:19;93481.38;;;1.03;100.00
50093;BME280;35974;47.752;10.290;2024-03-08T00:43:56;93488.97;;;1.04;100.00
50093;BME280;35974;47.752;10.290;2024-03-08T00:46:22;93487.03;;;1.06;100.00
50093;BME280;35974;47.752;10.290;2024-03-08T00:48:49;93469.44;;;1.02;100.00
50093;BME280;35974;47.752;10.290;2024-03-08T00:51:15;93475.09;;;1.05;100.00
50093;BME280;35974;47.752;10.290;2024-03-08T00:53:42;93475.75;;;0.99;100.00
50093;BME280;35974;47.752;10.290;2024-03-08T00:56:09;93467.03;;;1.00;100.00
50093;BME280;35974;47.752;10.290;2024-03-08T00:58:39;93455.44;;;0.96;100.00
50093;BME280;35974;47.752;10.290;2024-03-08T01:01:05;93472.53;;;1.14;100.00
50093;BME280;35974;47.752;10.290;2024-03-08T01:03:32;93466.25;;;1.08;100.00
50093;BME280;35974;47.752;10.290;2024-03-08T01:05:59;93461.28;;;1.15;100.00
50093;BME280;35974;47.752;10.290;2024-03-08T01:08:28;93455.81;;;1.09;100.00
50093;BME280;35974;47.752;10.290;2024-03-08T01:10:54;93457.09;;;1.14;100.00
50093;BME280;35974;47.752;10.290;2024-03-08T01:13:21;93464.16;;;1.12;100.00
50093;BME280;35974;47.752;10.290;2024-03-08T01:15:47;93452.88;;;1.04;100.00
50093;BME280;35974;47.752;10.290;2024-03-08T01:18:14;93457.88;;;1.06;100.00
50093;BME280;35974;47.752;10.290;2024-03-08T01:20:40;93445.50;;;1.09;100.00
50093;BME280;35974;47.752;10.290;2024-03-08T01:23:11;93445.81;;;1.06;100.00
50093;BME280;35974;47.752;10.290;2024-03-08T01:25:37;93441.28;;;1.08;100.00
50093;BME280;35974;47.752;10.290;2024-03-08T01:28:10;93435.81;;;1.03;100.00
50093;BME280;35974;47.752;10.290;2024-03-08T01:30:36;93448.84;;;1.02;100.00
50093;BME280;35974;47.752;10.290;2024-03-08T01:33:04;93450.94;;;1.06;100.00
50093;BME280;35974;47.752;10.290;2024-03-08T01:35:30;93431.59;;;1.02;100.00
50093;BME280;35974;47.752;10.290;2024-03-08T01:37:57;93431.94;;;0.99;100.00
50093;BME280;35974;47.752;10.290;2024-03-08T01:40:23;93431.59;;;1.02;100.00
50093;BME280;35974;47.752;10.290;2024-03-08T01:42:50;93421.16;;;1.04;100.00
50093;BME280;35974;47.752;10.290;2024-03-08T01:45:16;93429.06;;;1.11;100.00
50093;BME280;35974;47.752;10.290;2024-03-08T01:47:43;93418.72;;;1.02;100.00
50093;BME280;35974;47.752;10.290;2024-03-08T01:50:10;93427.13;;;1.04;100.00
50093;BME280;35974;47.752;10.290;2024-03-08T01:52:37;93427.44;;;1.01;100.00
50093;BME280;35974;47.752;10.290;2024-03-08T01:55:05;93422.59;;;0.98;100.00
50093;BME280;35974;47.752;10.290;2024-03-08T01:57:34;93419.09;;;1.07;100.00
50093;BME280;35974;47.752;10.290;2024-03-08T02:00:01;93405.81;;;0.94;100.00
50093;BME280;35974;47.752;10.290;2024-03-08T02:02:32;93408.69;;;0.83;100.00
50093;BME280;35974;47.752;10.290;2024-03-08T02:05:01;93404.47;;;0.73;100.00
50093;BME280;35974;47.752;10.290;2024-03-08T02:07:30;93385.78;;;0.71;100.00
50093;BME280;35974;47.752;10.290;2024-03-08T02:09:58;93402.25;;;0.87;100.00
50093;BME280;35974;47.752;10.290;2024-03-08T02:12:24;93379.53;;;0.74;100.00
50093;BME280;35974;47.752;10.290;2024-03-08T02:14:51;93395.47;;;0.78;100.00
50093;BME280;35974;47.752;10.290;2024-03-08T02:17:17;93384.53;;;0.84;100.00
50093;BME280;35974;47.752;10.290;2024-03-08T02:19:44;93384.69;;;0.82;100.00
50093;BME280;35974;47.752;10.290;2024-03-08T02:22:10;93391.19;;;0.95;100.00
50093;BME280;35974;47.752;10.290;2024-03-08T02:24:37;93382.31;;;0.89;100.00
50093;BME280;35974;47.752;10.290;2024-03-08T02:27:04;93374.59;;;0.97;100.00
50093;BME280;35974;47.752;10.290;2024-03-08T02:29:31;93364.13;;;0.90;100.00
50093;BME280;35974;47.752;10.290;2024-03-08T02:31:58;93376.66;;;0.85;100.00
50093;BME280;35974;47.752;10.290;2024-03-08T02:34:24;93353.47;;;0.77;100.00
50093;BME280;35974;47.752;10.290;2024-03-08T02:36:52;93352.28;;;0.63;100.00
50093;BME280;35974;47.752;10.290;2024-03-08T02:39:18;93350.06;;;0.68;100.00
50093;BME280;35974;47.752;10.290;2024-03-08T02:41:52;93365.88;;;0.82;100.00
50093;BME280;35974;47.752;10.290;2024-03-08T02:44:18;93374.06;;;0.77;100.00
50093;BME280;35974;47.752;10.290;2024-03-08T02:46:48;93351.66;;;0.69;100.00
50093;BME280;35974;47.752;10.290;2024-03-08T02:49:14;93355.88;;;0.79;100.00
50093;BME280;35974;47.752;10.290;2024-03-08T02:51:40;93373.00;;;0.96;100.00
50093;BME280;35974;47.752;10.290;2024-03-08T02:54:07;93356.81;;;0.69;100.00
50093;BME280;35974;47.752;10.290;2024-03-08T02:56:34;93346.03;;;0.66;100.00
50093;BME280;35974;47.752;10.290;2024-03-08T02:59:01;93341.97;;;0.63;100.00
50093;BME280;35974;47.752;10.290;2024-03-08T03:01:28;93347.81;;;0.65;100.00
50093;BME280;35974;47.752;10.290;2024-03-08T03:03:55;93338.75;;;0.61;100.00
50093;BME280;35974;47.752;10.290;2024-03-08T03:06:21;93367.16;;;0.86;100.00
50093;BME280;35974;47.752;10.290;2024-03-08T03:08:48;93347.50;;;0.77;100.00
50093;BME280;35974;47.752;10.290;2024-03-08T03:11:15;93351.03;;;0.76;100.00
50093;BME280;35974;47.752;10.290;2024-03-08T03:13:41;93337.53;;;0.73;100.00
50093;BME280;35974;47.752;10.290;2024-03-08T03:16:08;93337.53;;;0.73;100.00
50093;BME280;35974;47.752;10.290;2024-03-08T03:18:36;93353.00;;;0.82;100.00
50093;BME280;35974;47.752;10.290;2024-03-08T03:21:03;93337.50;;;0.65;100.00
50093;BME280;35974;47.752;10.290;2024-03-08T03:23:33;93334.63;;;0.68;100.00
50093;BME280;35974;47.752;10.290;2024-03-08T03:26:01;93320.09;;;0.59;100.00
50093;BME280;35974;47.752;10.290;2024-03-08T03:28:28;93231.00;;;0.07;100.00
50093;BME280;35974;47.752;10.290;2024-03-08T03:30:55;93327.06;;;0.67;100.00
50093;BME280;35974;47.752;10.290;2024-03-08T03:33:25;93318.34;;;0.68;100.00
50093;BME280;35974;47.752;10.290;2024-03-08T03:35:52;93337.53;;;0.73;100.00
50093;BME280;35974;47.752;10.290;2024-03-08T03:38:19;93325.91;;;0.69;100.00
50093;BME280;35974;47.752;10.290;2024-03-08T03:40:49;93316.88;;;0.57;100.00
50093;BME280;35974;47.752;10.290;2024-03-08T03:43:18;93311.75;;;0.57;100.00
50093;BME280;35974;47.752;10.290;2024-03-08T03:45:45;93330.56;;;0.66;100.00
50093;BME280;35974;47.752;10.290;2024-03-08T03:48:11;93327.06;;;0.67;100.00
50093;BME280;35974;47.752;10.290;2024-03-08T03:50:38;93310.78;;;0.66;100.00
50093;BME280;35974;47.752;10.290;2024-03-08T03:53:06;93307.25;;;0.67;100.00
50093;BME280;35974;47.752;10.290;2024-03-08T03:55:37;93320.13;;;0.76;100.00
50093;BME280;35974;47.752;10.290;2024-03-08T03:58:06;93304.03;;;0.65;100.00
50093;BME280;35974;47.752;10.290;2024-03-08T04:00:33;93308.22;;;0.75;100.00
50093;BME280;35974;47.752;10.290;2024-03-08T04:02:59;93311.47;;;0.77;100.00
50093;BME280;35974;47.752;10.290;2024-03-08T04:05:27;93327.88;;;0.84;100.00
50093;BME280;35974;47.752;10.290;2024-03-08T04:07:54;93314.03;;;0.68;100.00
50093;BME280;35974;47.752;10.290;2024-03-08T04:10:21;93323.38;;;0.86;100.00
50093;BME280;35974;47.752;10.290;2024-03-08T04:12:47;93315.16;;;0.82;100.00
50093;BME280;35974;47.752;10.290;2024-03-08T04:15:14;93305.00;;;0.72;100.00
50093;BME280;35974;47.752;10.290;2024-03-08T04:17:41;93300.47;;;0.66;100.00
50093;BME280;35974;47.752;10.290;2024-03-08T04:20:08;93301.44;;;0.57;100.00
50093;BME280;35974;47.752;10.290;2024-03-08T04:22:37;93285.63;;;0.52;100.00
50093;BME280;35974;47.752;10.290;2024-03-08T04:25:04;93321.09;;;0.83;100.00
50093;BME280;35974;47.752;10.290;2024-03-08T04:27:31;93305.47;;;0.76;100.00
50093;BME280;35974;47.752;10.290;2024-03-08T04:29:59;93315.97;;;0.83;100.00
50093;BME280;35974;47.752;10.290;2024-03-08T04:32:26;93300.66;;;0.81;100.00
50093;BME280;35974;47.752;10.290;2024-03-08T04:34:52;93312.13;;;0.87;100.00
50093;BME280;35974;47.752;10.290;2024-03-08T04:37:19;93305.03;;;0.89;100.00
50093;BME280;35974;47.752;10.290;2024-03-08T04:39:48;93293.44;;;0.77;100.00
50093;BME280;35974;47.752;10.290;2024-03-08T04:42:15;93300.84;;;0.80;100.00
50093;BME280;35974;47.752;10.290;2024-03-08T04:44:42;93296.31;;;0.73;100.00
50093;BME280;35974;47.752;10.290;2024-03-08T04:47:09;93290.84;;;0.77;100.00
50093;BME280;35974;47.752;10.290;2024-03-08T04:49:38;93296.97;;;0.84;100.00
50093;BME280;35974;47.752;10.290;2024-03-08T04:52:05;93292.44;;;0.78;100.00
50093;BME280;35974;47.752;10.290;2024-03-08T04:54:31;93286.03;;;0.73;100.00
50093;BME280;35974;47.752;10.290;2024-03-08T04:57:06;93294.88;;;0.79;100.00
50093;BME280;35974;47.752;10.290;2024-03-08T04:59:35;93291.50;;;0.79;100.00
50093;BME280;35974;47.752;10.290;2024-03-08T05:02:03;93293.75;;;0.82;100.00
50093;BME280;35974;47.752;10.290;2024-03-08T05:04:30;93279.72;;;0.68;100.00
50093;BME280;35974;47.752;10.290;2024-03-08T05:06:56;93284.41;;;0.72;100.00
50093;BME280;35974;47.752;10.290;2024-03-08T05:09:23;93275.69;;;0.57;100.00
50093;BME280;35974;47.752;10.290;2024-03-08T05:11:50;93278.59;;;0.62;100.00
50093;BME280;35974;47.752;10.290;2024-03-08T05:14:16;93301.66;;;0.80;100.00
50093;BME280;35974;47.752;10.290;2024-03-08T05:16:44;93293.41;;;0.68;100.00
50093;BME280;35974;47.752;10.290;2024-03-08T05:19:20;93280.34;;;0.62;100.00
50093;BME280;35974;47.752;10.290;2024-03-08T05:21:48;93295.00;;;0.69;100.00
50093;BME280;35974;47.752;10.290;2024-03-08T05:24:15;93293.06;;;0.71;100.00
50093;BME280;35974;47.752;10.290;2024-03-08T05:26:45;93296.94;;;0.67;100.00
50093;BME280;35974;47.752;10.290;2024-03-08T05:29:14;93281.16;;;0.54;100.00
50093;BME280;35974;47.752;10.290;2024-03-08T05:31:49;93283.25;;;0.59;100.00
50093;BME280;35974;47.752;10.290;2024-03-08T05:34:16;93290.84;;;0.68;100.00
50093;BME280;35974;47.752;10.290;2024-03-08T05:36:43;93293.06;;;0.71;100.00
50093;BME280;35974;47.752;10.290;2024-03-08T05:39:13;93298.19;;;0.55;100.00
50093;BME280;35974;47.752;10.290;2024-03-08T05:41:40;93293.69;;;0.49;100.00
50093;BME280;35974;47.752;10.290;2024-03-08T05:44:08;93281.13;;;0.38;100.00
50093;BME280;35974;47.752;10.290;2024-03-08T05:46:35;93272.09;;;0.33;100.00
50093;BME280;35974;47.752;10.290;2024-03-08T05:49:06;93288.84;;;0.46;100.00
50093;BME280;35974;47.752;10.290;2024-03-08T05:51:33;93291.84;;;0.25;100.00
50093;BME280;35974;47.752;10.290;2024-03-08T05:54:03;93286.56;;;0.34;100.00
50093;BME280;35974;47.752;10.290;2024-03-08T05:56:32;93293.31;;;0.35;100.00
50093;BME280;35974;47.752;10.290;2024-03-08T05:58:59;93274.97;;;0.30;100.00
50093;BME280;35974;47.752;10.290;2024-03-08T06:01:33;93280.13;;;0.39;100.00
50093;BME280;35974;47.752;10.290;2024-03-08T06:04:03;93286.44;;;0.44;100.00
50093;BME280;35974;47.752;10.290;2024-03-08T06:06:30;93264.97;;;0.27;100.00
50093;BME280;35974;47.752;10.290;2024-03-08T06:08:57;93282.72;;;0.39;100.00
50093;BME280;35974;47.752;10.290;2024-03-08T06:11:25;93282.41;;;0.42;100.00
50093;BME280;35974;47.752;10.290;2024-03-08T06:13:56;93287.88;;;0.47;100.00
50093;BME280;35974;47.752;10.290;2024-03-08T06:16:27;93278.03;;;0.42;100.00
50093;BME280;35974;47.752;10.290;2024-03-08T06:18:56;93265.97;;;0.34;100.00
50093;BME280;35974;47.752;10.290;2024-03-08T06:21:26;93281.13;;;0.38;100.00
50093;BME280;35974;47.752;10.290;2024-03-08T06:23:53;93280.59;;;0.34;100.00
50093;BME280;35974;47.752;10.290;2024-03-08T06:26:21;93274.66;;;0.33;100.00
50093;BME280;35974;47.752;10.290;2024-03-08T06:28:48;93269.75;;;0.14;100.00
50093;BME280;35974;47.752;10.290;2024-03-08T06:31:15;93287.16;;;0.20;100.00
50093;BME280;35974;47.752;10.290;2024-03-08T06:33:41;93267.47;;;0.03;100.00
50093;BME280;35974;47.752;10.290;2024-03-08T06:36:09;93273.63;;;0.10;100.00
50093;BME280;35974;47.752;10.290;2024-03-08T06:38:35;93278.81;;;0.26;100.00
50093;BME280;35974;47.752;10.290;2024-03-08T06:41:02;93285.59;;;0.35;100.00
50093;BME280;35974;47.752;10.290;2024-03-08T06:43:30;93264.34;;;0.33;100.00
50093;BME280;35974;47.752;10.290;2024-03-08T06:46:00;93280.16;;;0.47;100.00
50093;BME280;35974;47.752;10.290;2024-03-08T06:48:26;93286.47;;;0.61;100.00
50093;BME280;35974;47.752;10.290;2024-03-08T06:50:53;93280.16;;;0.55;100.00
50093;BME280;35974;47.752;10.290;2024-03-08T06:53:20;93272.44;;;0.55;100.00
50093;BME280;35974;47.752;10.290;2024-03-08T06:55:50;93281.47;;;0.59;100.00
50093;BME280;35974;47.752;10.290;2024-03-08T06:58:17;93276.66;;;0.64;100.00
50093;BME280;35974;47.752;10.290;2024-03-08T07:00:43;93276.97;;;0.61;100.00
50093;BME280;35974;47.752;10.290;2024-03-08T07:03:10;93290.50;;;0.71;100.00
50093;BME280;35974;47.752;10.290;2024-03-08T07:05:39;93280.53;;;0.60;100.00
50093;BME280;35974;47.752;10.290;2024-03-08T07:08:06;93272.97;;;0.59;100.00
50093;BME280;35974;47.752;10.290;2024-03-08T07:10:34;93271.19;;;0.67;100.00
50093;BME280;35974;47.752;10.290;2024-03-08T07:13:01;93271.03;;;0.69;100.00
50093;BME280;35974;47.752;10.290;2024-03-08T07:15:38;93279.25;;;0.64;100.00
50093;BME280;35974;47.752;10.290;2024-03-08T07:18:06;93284.09;;;0.76;100.00
50093;BME280;35974;47.752;10.290;2024-03-08T07:20:35;93273.78;;;0.76;100.00
50093;BME280;35974;47.752;10.290;2024-03-08T07:23:03;93256.66;;;0.42;100.00
50093;BME280;35974;47.752;10.290;2024-03-08T07:25:32;93253.16;;;0.59;100.00
50093;BME280;35974;47.752;10.290;2024-03-08T07:27:59;93263.47;;;0.76;100.00
50093;BME280;35974;47.752;10.290;2024-03-08T07:30:27;93264.44;;;0.66;100.00
50093;BME280;35974;47.752;10.290;2024-03-08T07:33:19;93254.50;;;0.80;100.00
50093;BME280;35974;47.752;10.290;2024-03-08T07:35:46;93249.66;;;0.68;100.00
50093;BME280;35974;47.752;10.290;2024-03-08T07:38:13;93261.88;;;0.75;100.00
50093;BME280;35974;47.752;10.290;2024-03-08T07:40:41;93268.94;;;0.72;100.00
50093;BME280;35974;47.752;10.290;2024-03-08T07:43:11;93264.44;;;0.83;100.00
50093;BME280;35974;47.752;10.290;2024-03-08T07:45:41;93254.16;;;0.83;100.00
50093;BME280;35974;47.752;10.290;2024-03-08T07:48:13;93249.97;;;0.90;100.00
50093;BME280;35974;47.752;10.290;2024-03-08T07:50:40;93248.03;;;0.92;100.00
50093;BME280;35974;47.752;10.290;2024-03-08T07:53:08;93245.13;;;0.54;100.00
50093;BME280;35974;47.752;10.290;2024-03-08T07:55:35;93239.78;;;0.47;100.00
50093;BME280;35974;47.752;10.290;2024-03-08T07:58:02;93238.63;;;0.42;100.00
50093;BME280;35974;47.752;10.290;2024-03-08T08:00:30;93261.88;;;0.75;100.00
50093;BME280;35974;47.752;10.290;2024-03-08T08:03:00;93248.03;;;0.92;100.00
50093;BME280;35974;47.752;10.290;2024-03-08T08:05:27;93240.63;;;1.14;100.00
50093;BME280;35974;47.752;10.290;2024-03-08T08:07:54;93249.66;;;1.26;100.00
50093;BME280;35974;47.752;10.290;2024-03-08T08:10:20;93240.63;;;1.14;100.00
50093;BME280;35974;47.752;10.290;2024-03-08T08:12:52;93233.88;;;0.96;100.00
50093;BME280;35974;47.752;10.290;2024-03-08T08:15:26;93228.41;;;1.16;100.00
50093;BME280;35974;47.752;10.290;2024-03-08T08:17:54;93224.50;;;1.36;100.00
50093;BME280;35974;47.752;10.290;2024-03-08T08:20:33;93218.56;;;1.19;100.00
50093;BME280;35974;47.752;10.290;2024-03-08T08:22:59;93222.59;;;1.22;100.00
50093;BME280;35974;47.752;10.290;2024-03-08T08:25:25;93232.88;;;1.22;100.00
50093;BME280;35974;47.752;10.290;2024-03-08T08:27:52;93216.94;;;1.26;100.00
50093;BME280;35974;47.752;10.290;2024-03-08T08:30:21;93209.81;;;1.53;100.00
50093;BME280;35974;47.752;10.290;2024-03-08T08:32:48;93213.19;;;1.54;100.00
50093;BME280;35974;47.752;10.290;2024-03-08T08:35:16;93193.53;;;1.44;100.00
50093;BME280;35974;47.752;10.290;2024-03-08T08:37:43;93206.69;;;1.74;100.00
50093;BME280;35974;47.752;10.290;2024-03-08T08:40:11;93207.91;;;1.95;100.00
50093;BME280;35974;47.752;10.290;2024-03-08T08:42:42;93201.47;;;1.91;100.00
50093;BME280;35974;47.752;10.290;2024-03-08T08:45:09;93202.41;;;1.98;100.00
50093;BME280;35974;47.752;10.290;2024-03-08T08:47:55;93204.66;;;2.01;100.00
50093;BME280;35974;47.752;10.290;2024-03-08T08:50:22;93195.13;;;2.10;100.00
50093;BME280;35974;47.752;10.290;2024-03-08T08:52:58;93205.47;;;2.33;100.00
50093;BME280;35974;47.752;10.290;2024-03-08T08:55:24;93211.22;;;2.43;100.00
50093;BME280;35974;47.752;10.290;2024-03-08T08:57:53;93201.66;;;2.20;100.00
50093;BME280;35974;47.752;10.290;2024-03-08T09:00:19;93204.16;;;2.06;100.00
50093;BME280;35974;47.752;10.290;2024-03-08T09:02:47;93193.75;;;2.22;100.00
50093;BME280;35974;47.752;10.290;2024-03-08T09:05:15;93186.16;;;2.20;100.00
50093;BME280;35974;47.752;10.290;2024-03-08T09:07:44;93200.06;;;2.19;100.00
50093;BME280;35974;47.752;10.290;2024-03-08T09:10:11;93186.91;;;1.98;100.00
50093;BME280;35974;47.752;10.290;2024-03-08T09:12:41;93180.44;;;2.10;100.00
50093;BME280;35974;47.752;10.290;2024-03-08T09:15:10;93174.69;;;2.00;100.00
50093;BME280;35974;47.752;10.290;2024-03-08T09:17:40;93180.63;;;2.32;100.00
50093;BME280;35974;47.752;10.290;2024-03-08T09:20:08;93189.88;;;2.26;100.00
50093;BME280;35974;47.752;10.290;2024-03-08T09:22:36;93189.53;;;2.52;100.00
50093;BME280;35974;47.752;10.290;2024-03-08T09:25:02;93163.72;;;2.52;100.00
50093;BME280;35974;47.752;10.290;2024-03-08T09:27:42;93180.69;;;2.47;100.00
50093;BME280;35974;47.752;10.290;2024-03-08T09:30:09;93161.97;;;2.68;100.00
50093;BME280;35974;47.752;10.290;2024-03-08T09:32:39;93165.78;;;2.57;100.00
50093;BME280;35974;47.752;10.290;2024-03-08T09:35:07;93164.97;;;2.56;100.00
50093;BME280;35974;47.752;10.290;2024-03-08T09:37:34;93171.47;;;2.52;100.00
50093;BME280;35974;47.752;10.290;2024-03-08T09:40:01;93171.97;;;2.71;100.00
50093;BME280;35974;47.752;10.290;2024-03-08T09:42:31;93155.78;;;2.77;100.00
50093;BME280;35974;47.752;10.290;2024-03-08T09:44:59;93173.81;;;2.85;100.00
50093;BME280;35974;47.752;10.290;2024-03-08T09:47:28;93162.44;;;2.95;100.00
50093;BME280;35974;47.752;10.290;2024-03-08T09:50:00;93152.66;;;3.05;100.00
50093;BME280;35974;47.752;10.290;2024-03-08T09:52:29;93157.22;;;3.33;100.00
50093;BME280;35974;47.752;10.290;2024-03-08T09:54:58;93142.56;;;3.10;100.00
50093;BME280;35974;47.752;10.290;2024-03-08T09:57:25;93153.94;;;3.39;100.00
50093;BME280;35974;47.752;10.290;2024-03-08T09:59:52;93150.19;;;3.56;100.00
50093;BME280;35974;47.752;10.290;2024-03-08T10:02:19;93150.88;;;3.80;100.00
50093;BME280;35974;47.752;10.290;2024-03-08T10:04:47;93166.59;;;3.93;100.00
50093;BME280;35974;47.752;10.290;2024-03-08T10:07:14;93151.06;;;3.93;100.00
50093;BME280;35974;47.752;10.290;2024-03-08T10:09:40;93153.75;;;3.85;100.00
50093;BME280;35974;47.752;10.290;2024-03-08T10:12:15;93148.75;;;3.98;100.00
50093;BME280;35974;47.752;10.290;2024-03-08T10:14:42;93138.38;;;3.98;100.00
50093;BME280;35974;47.752;10.290;2024-03-08T10:17:09;93131.59;;;3.97;100.00
50093;BME280;35974;47.752;10.290;2024-03-08T10:19:37;93124.38;;;4.29;100.00
50093;BME280;35974;47.752;10.290;2024-03-08T10:22:03;93146.97;;;4.57;100.00
50093;BME280;35974;47.752;10.290;2024-03-08T10:24:31;93120.81;;;4.73;100.00
50093;BME280;35974;47.752;10.290;2024-03-08T10:27:03;93132.91;;;4.88;100.00
50093;BME280;35974;47.752;10.290;2024-03-08T10:29:31;93118.50;;;4.85;100.00
50093;BME280;35974;47.752;10.290;2024-03-08T10:31:58;93122.28;;;4.61;100.00
50093;BME280;35974;47.752;10.290;2024-03-08T10:34:25;93120.44;;;4.76;100.00
50093;BME280;35974;47.752;10.290;2024-03-08T10:36:52;93119.31;;;4.86;100.00
50093;BME280;35974;47.752;10.290;2024-03-08T10:39:23;93116.19;;;4.97;100.00
50093;BME280;35974;47.752;10.290;2024-03-08T10:41:55;93131.16;;;5.23;100.00
50093;BME280;35974;47.752;10.290;2024-03-08T10:47:06;93124.56;;;5.21;100.00
50093;BME280;35974;47.752;10.290;2024-03-08T10:49:38;93111.22;;;5.24;100.00
50093;BME280;35974;47.752;10.290;2024-03-08T10:52:05;93113.88;;;5.02;100.00
50093;BME280;35974;47.752;10.290;2024-03-08T10:54:37;93121.59;;;5.24;100.00
50093;BME280;35974;47.752;10.290;2024-03-08T10:57:12;93120.09;;;5.36;100.00
50093;BME280;35974;47.752;10.290;2024-03-08T10:59:39;93107.72;;;5.38;100.00
50093;BME280;35974;47.752;10.290;2024-03-08T11:02:06;93099.34;;;5.36;100.00
50093;BME280;35974;47.752;10.290;2024-03-08T11:04:32;93093.72;;;5.39;100.00
50093;BME280;35974;47.752;10.290;2024-03-08T11:07:01;93086.66;;;5.55;100.00
50093;BME280;35974;47.752;10.290;2024-03-08T11:09:36;93104.31;;;5.79;100.00
50093;BME280;35974;47.752;10.290;2024-03-08T11:12:27;93103.03;;;5.62;100.00
50093;BME280;35974;47.752;10.290;2024-03-08T11:15:00;93108.53;;;5.80;100.00
50093;BME280;35974;47.752;10.290;2024-03-08T11:20:11;93103.19;;;5.89;100.00
50093;BME280;35974;47.752;10.290;2024-03-08T11:22:53;93084.41;;;5.86;100.00
50093;BME280;35974;47.752;10.290;2024-03-08T11:25:33;93098.88;;;6.09;100.00
50093;BME280;35974;47.752;10.290;2024-03-08T11:28:08;93077.66;;;5.99;100.00
50093;BME280;35974;47.752;10.290;2024-03-08T11:30:37;93091.69;;;6.04;100.00
50093;BME280;35974;47.752;10.290;2024-03-08T11:33:04;93072.13;;;6.15;100.00
50093;BME280;35974;47.752;10.290;2024-03-08T11:35:31;93072.94;;;6.22;100.00
50093;BME280;35974;47.752;10.290;2024-03-08T11:37:59;93077.78;;;6.39;100.00
50093;BME280;35974;47.752;10.290;2024-03-08T11:40:27;93062.19;;;6.39;100.00
50093;BME280;35974;47.752;10.290;2024-03-08T11:55:05;93063.00;;;6.86;100.00
50093;BME280;35974;47.752;10.290;2024-03-08T11:57:33;93039.41;;;6.74;100.00
50093;BME280;35974;47.752;10.290;2024-03-08T11:59:59;93034.19;;;6.54;100.00
50093;BME280;35974;47.752;10.290;2024-03-08T12:02:35;93039.00;;;6.71;100.00
50093;BME280;35974;47.752;10.290;2024-03-08T12:05:05;93041.22;;;6.87;100.00
50093;BME280;35974;47.752;10.290;2024-03-08T12:07:36;93027.38;;;6.93;100.00
50093;BME280;35974;47.752;10.290;2024-03-08T12:10:21;93043.38;;;6.90;100.00
50093;BME280;35974;47.752;10.290;2024-03-08T12:12:50;93017.00;;;6.80;100.00
50093;BME280;35974;47.752;10.290;2024-03-08T12:15:22;93015.41;;;6.92;100.00
50093;BME280;35974;47.752;10.290;2024-03-08T12:17:50;93024.56;;;7.08;100.00
50093;BME280;35974;47.752;10.290;2024-03-08T12:20:21;93012.16;;;7.17;100.00
50093;BME280;35974;47.752;10.290;2024-03-08T12:22:49;93028.94;;;7.21;100.00
50093;BME280;35974;47.752;10.290;2024-03-08T12:25:16;93003.94;;;7.20;100.00
50093;BME280;35974;47.752;10.290;2024-03-08T12:27:43;93030.91;;;7.46;100.00
50093;BME280;35974;47.752;10.290;2024-03-08T12:30:24;93000.81;;;7.50;100.00
50093;BME280;35974;47.752;10.290;2024-03-08T12:32:59;93026.03;;;7.56;100.00
50093;BME280;35974;47.752;10.290;2024-03-08T12:35:27;93026.03;;;7.56;100.00
50093;BME280;35974;47.752;10.290;2024-03-08T12:37:59;93014.16;;;7.15;100.00
50093;BME280;35974;47.752;10.290;2024-03-08T12:40:27;93011.16;;;7.18;100.00
50093;BME280;35974;47.752;10.290;2024-03-08T12:42:56;93006.91;;;7.30;100.00
50093;BME280;35974;47.752;10.290;2024-03-08T12:45:26;93019.88;;;7.44;100.00
50093;BME280;35974;47.752;10.290;2024-03-08T12:47:54;93001.28;;;7.33;100.00
50093;BME280;35974;47.752;10.290;2024-03-08T12:50:23;92993.56;;;7.65;100.00
50093;BME280;35974;47.752;10.290;2024-03-08T12:52:51;92989.88;;;7.80;100.00
50093;BME280;35974;47.752;10.290;2024-03-08T12:55:21;92985.16;;;7.63;100.00
50093;BME280;35974;47.752;10.290;2024-03-08T12:57:48;92968.13;;;7.67;100.00
50093;BME280;35974;47.752;10.290;2024-03-08T13:00:15;92955.94;;;7.61;100.00
50093;BME280;35974;47.752;10.290;2024-03-08T13:02:50;92972.25;;;7.82;100.00
50093;BME280;35974;47.752;10.290;2024-03-08T13:05:20;92962.25;;;7.79;100.00
50093;BME280;35974;47.752;10.290;2024-03-08T13:07:48;92968.63;;;7.90;100.00
50093;BME280;35974;47.752;10.290;2024-03-08T13:10:15;92970.09;;;8.04;100.00
50093;BME280;35974;47.752;10.290;2024-03-08T13:12:42;92954.88;;;8.07;100.00
50093;BME280;35974;47.752;10.290;2024-03-08T13:15:10;92964.44;;;8.14;100.00